Airfield :
LOGIN :

Register | Disclaimer

   EN    FR    IT 

 










Legend :    VFR   Marginal VFR   IFR   Intensive IFR   Very Intensive IFR
Visi :
Ceiling :
>= 8 km
>= 3000ft
5 to 8 km
1000 to 3000 ft
1500m to 5 km
500 to 1000 ft
800 to 1500m
200 to 500 ft
< 800m
< 200 ft
Symbols :   Thunderstorms  Fog  Heavy snow  Heavy precipitations  Wind > 20 kt
SIGMETs :     Misc.  Thunderstorms  Icing  Turbulence  Mountain Waves  Volcanic Ashes






- Airport Elevation : 1504 ft
- IATA code : PNA


LEPP - Noain Pamplona

CURRENT METAR :
  • 231430Z 22003KT 160V300 CAVOK 18/03 Q1031

EXPIRED METARs :
  • 231400Z 27001KT CAVOK 17/04 Q1032
  • 231330Z 29002KT CAVOK 17/04 Q1032
  • 231300Z 29002KT CAVOK 16/05 Q1033
  • 231230Z VRB02KT CAVOK 14/04 Q1034
  • 231200Z 28001KT CAVOK 14/04 Q1034

TAF TAF LEPP
Valid from the 23 at 15:00 until the 24 at 15:00 UTC


231400Z 2315/2415 VRB03KT CAVOK TX19/2415Z TNM00/2407Z
TEMPO 2315/2321 34010KT



MET'MAP, your aeronautical weather chart ! - Copyright ORBIFLY December 2007 - Disclaimer

ORBIFLY MET'MAP TEAM :

Programming & Development : Alexandra Zaïnal
Concept & original design : Baudouin d'Aumeries
Assistance for programming : Marc-Olivier Méhu
Technical & hardware support : Manuel Goepfert

Contact : metmap@orbifly.com




SOURCES & CREDITS :

   NOAA